sensor_id;sensor_type;location;lat;lon;timestamp;pressure;altitude;pressure_sealevel;temperature;humidity
7109;BME280;29079;41.930;25.558;2023-03-31T00:00:45;99670.91;;;9.69;63.67
7109;BME280;29079;41.930;25.558;2023-03-31T00:03:18;99670.81;;;9.59;64.15
7109;BME280;29079;41.930;25.558;2023-03-31T00:05:56;99668.34;;;9.35;64.49
7109;BME280;29079;41.930;25.558;2023-03-31T00:08:30;99666.13;;;9.52;64.46
7109;BME280;29079;41.930;25.558;2023-03-31T00:11:06;99660.94;;;9.39;65.23
7109;BME280;29079;41.930;25.558;2023-03-31T00:13:40;99664.81;;;9.46;63.64
7109;BME280;29079;41.930;25.558;2023-03-31T00:16:13;99652.91;;;9.50;63.95
7109;BME280;29079;41.930;25.558;2023-03-31T00:18:47;99657.22;;;9.30;65.24
7109;BME280;29079;41.930;25.558;2023-03-31T00:21:23;99658.19;;;9.29;64.88
7109;BME280;29079;41.930;25.558;2023-03-31T00:23:57;99653.91;;;9.38;63.35
7109;BME280;29079;41.930;25.558;2023-03-31T00:26:32;99649.53;;;9.48;64.18
7109;BME280;29079;41.930;25.558;2023-03-31T00:29:06;99646.03;;;9.48;62.81
7109;BME280;29079;41.930;25.558;2023-03-31T00:31:40;99640.75;;;9.69;62.29
7109;BME280;29079;41.930;25.558;2023-03-31T00:34:13;99640.41;;;9.62;63.42
7109;BME280;29079;41.930;25.558;2023-03-31T00:36:48;99638.88;;;9.48;63.45
7109;BME280;29079;41.930;25.558;2023-03-31T00:39:21;99632.19;;;9.54;63.16
7109;BME280;29079;41.930;25.558;2023-03-31T00:41:55;99633.38;;;9.29;64.93
7109;BME280;29079;41.930;25.558;2023-03-31T00:44:29;99638.97;;;9.58;63.44
7109;BME280;29079;41.930;25.558;2023-03-31T00:47:05;99639.19;;;9.34;64.02
7109;BME280;29079;41.930;25.558;2023-03-31T00:49:39;99638.13;;;9.57;63.23
7109;BME280;29079;41.930;25.558;2023-03-31T00:52:17;99635.03;;;9.73;61.50
7109;BME280;29079;41.930;25.558;2023-03-31T00:54:54;99633.63;;;9.58;63.22
7109;BME280;29079;41.930;25.558;2023-03-31T00:57:29;99618.84;;;9.33;64.43
7109;BME280;29079;41.930;25.558;2023-03-31T01:00:11;99622.28;;;9.12;64.91
7109;BME280;29079;41.930;25.558;2023-03-31T01:02:47;99627.63;;;9.12;65.17
7109;BME280;29079;41.930;25.558;2023-03-31T01:05:25;99621.63;;;9.64;62.77
7109;BME280;29079;41.930;25.558;2023-03-31T01:08:00;99624.50;;;9.39;64.95
7109;BME280;29079;41.930;25.558;2023-03-31T01:10:35;99623.84;;;9.15;65.21
7109;BME280;29079;41.930;25.558;2023-03-31T01:13:13;99626.88;;;9.10;65.25
7109;BME280;29079;41.930;25.558;2023-03-31T01:15:48;99619.50;;;9.14;65.66
7109;BME280;29079;41.930;25.558;2023-03-31T01:18:21;99616.28;;;8.87;67.44
7109;BME280;29079;41.930;25.558;2023-03-31T01:23:51;99613.44;;;9.12;65.99
7109;BME280;29079;41.930;25.558;2023-03-31T01:26:35;99616.22;;;9.21;64.59
7109;BME280;29079;41.930;25.558;2023-03-31T01:29:19;99617.50;;;8.83;67.54
7109;BME280;29079;41.930;25.558;2023-03-31T01:32:09;99611.22;;;8.62;69.18
7109;BME280;29079;41.930;25.558;2023-03-31T01:35:05;99613.75;;;8.86;67.60
7109;BME280;29079;41.930;25.558;2023-03-31T01:43:33;99610.84;;;8.32;70.35
7109;BME280;29079;41.930;25.558;2023-03-31T01:46:09;99608.88;;;8.91;67.12
7109;BME280;29079;41.930;25.558;2023-03-31T01:48:51;99610.69;;;9.02;66.85
7109;BME280;29079;41.930;25.558;2023-03-31T01:51:28;99605.66;;;8.87;68.03
7109;BME280;29079;41.930;25.558;2023-03-31T01:54:06;99600.31;;;8.42;69.55
7109;BME280;29079;41.930;25.558;2023-03-31T01:56:44;99598.47;;;8.20;70.31
7109;BME280;29079;41.930;25.558;2023-03-31T01:59:21;99587.75;;;8.33;70.33
7109;BME280;29079;41.930;25.558;2023-03-31T02:01:58;99583.41;;;8.66;68.50
7109;BME280;29079;41.930;25.558;2023-03-31T02:04:34;99573.03;;;8.63;68.03
7109;BME280;29079;41.930;25.558;2023-03-31T02:07:09;99580.84;;;8.42;69.49
7109;BME280;29079;41.930;25.558;2023-03-31T02:09:45;99574.53;;;8.09;70.16
7109;BME280;29079;41.930;25.558;2023-03-31T02:12:21;99571.19;;;8.07;70.37
7109;BME280;29079;41.930;25.558;2023-03-31T02:14:58;99572.16;;;8.28;68.25
7109;BME280;29079;41.930;25.558;2023-03-31T02:17:32;99576.31;;;7.74;68.92
7109;BME280;29079;41.930;25.558;2023-03-31T02:20:06;99584.03;;;7.30;70.63
7109;BME280;29079;41.930;25.558;2023-03-31T02:22:42;99578.59;;;7.08;72.01
7109;BME280;29079;41.930;25.558;2023-03-31T02:25:18;99593.22;;;7.13;71.04
7109;BME280;29079;41.930;25.558;2023-03-31T02:27:54;99586.22;;;7.12;70.83
7109;BME280;29079;41.930;25.558;2023-03-31T02:30:29;99579.09;;;7.13;71.28
7109;BME280;29079;41.930;25.558;2023-03-31T02:33:04;99578.06;;;7.03;71.79
7109;BME280;29079;41.930;25.558;2023-03-31T02:35:38;99576.06;;;7.06;71.81
7109;BME280;29079;41.930;25.558;2023-03-31T02:38:11;99578.19;;;7.01;71.42
7109;BME280;29079;41.930;25.558;2023-03-31T02:40:44;99574.41;;;6.92;71.47
7109;BME280;29079;41.930;25.558;2023-03-31T02:43:17;99574.66;;;6.76;72.41
7109;BME280;29079;41.930;25.558;2023-03-31T02:45:52;99567.88;;;6.72;72.10
7109;BME280;29079;41.930;25.558;2023-03-31T02:48:26;99586.66;;;6.69;72.48
7109;BME280;29079;41.930;25.558;2023-03-31T02:53:58;99577.31;;;6.39;72.74
7109;BME280;29079;41.930;25.558;2023-03-31T02:56:37;99579.22;;;6.37;72.80
7109;BME280;29079;41.930;25.558;2023-03-31T02:59:23;99586.31;;;6.24;73.16
7109;BME280;29079;41.930;25.558;2023-03-31T03:02:07;99585.06;;;6.30;73.12
7109;BME280;29079;41.930;25.558;2023-03-31T03:04:48;99585.50;;;6.10;73.19
7109;BME280;29079;41.930;25.558;2023-03-31T03:07:24;99584.34;;;6.15;72.94
7109;BME280;29079;41.930;25.558;2023-03-31T03:10:03;99586.00;;;5.90;74.00
7109;BME280;29079;41.930;25.558;2023-03-31T03:12:41;99590.06;;;6.08;73.24
7109;BME280;29079;41.930;25.558;2023-03-31T03:15:17;99585.72;;;6.07;73.35
7109;BME280;29079;41.930;25.558;2023-03-31T03:17:54;99585.16;;;6.02;73.32
7109;BME280;29079;41.930;25.558;2023-03-31T03:20:28;99589.41;;;6.05;73.51
7109;BME280;29079;41.930;25.558;2023-03-31T03:23:04;99591.97;;;6.19;72.39
7109;BME280;29079;41.930;25.558;2023-03-31T03:25:37;99584.53;;;5.99;73.39
7109;BME280;29079;41.930;25.558;2023-03-31T03:28:11;99581.97;;;6.23;72.23
7109;BME280;29079;41.930;25.558;2023-03-31T03:30:45;99590.25;;;6.05;72.98
7109;BME280;29079;41.930;25.558;2023-03-31T03:33:19;99589.69;;;6.39;72.61
7109;BME280;29079;41.930;25.558;2023-03-31T03:35:56;99583.06;;;6.33;71.53
7109;BME280;29079;41.930;25.558;2023-03-31T03:38:29;99595.22;;;6.36;72.41
7109;BME280;29079;41.930;25.558;2023-03-31T03:41:02;99595.44;;;6.07;73.04
7109;BME280;29079;41.930;25.558;2023-03-31T03:43:35;99596.41;;;6.19;72.92
7109;BME280;29079;41.930;25.558;2023-03-31T03:46:08;99595.53;;;6.57;71.20
7109;BME280;29079;41.930;25.558;2023-03-31T03:48:43;99601.69;;;6.32;71.97
7109;BME280;29079;41.930;25.558;2023-03-31T03:51:17;99609.22;;;6.38;71.52
7109;BME280;29079;41.930;25.558;2023-03-31T03:53:50;99603.59;;;6.30;71.79
7109;BME280;29079;41.930;25.558;2023-03-31T03:56:23;99612.09;;;6.22;72.21
7109;BME280;29079;41.930;25.558;2023-03-31T03:58:56;99612.09;;;6.22;72.60
7109;BME280;29079;41.930;25.558;2023-03-31T04:01:30;99616.97;;;6.28;72.49
7109;BME280;29079;41.930;25.558;2023-03-31T04:04:04;99616.31;;;6.24;72.80
7109;BME280;29079;41.930;25.558;2023-03-31T04:06:38;99608.25;;;6.39;71.84
7109;BME280;29079;41.930;25.558;2023-03-31T04:09:11;99614.22;;;6.30;72.20
7109;BME280;29079;41.930;25.558;2023-03-31T04:11:48;99594.59;;;6.45;72.09
7109;BME280;29079;41.930;25.558;2023-03-31T04:14:22;99596.47;;;6.56;70.70
7109;BME280;29079;41.930;25.558;2023-03-31T04:16:57;99598.41;;;6.54;70.89
7109;BME280;29079;41.930;25.558;2023-03-31T04:19:32;99600.59;;;6.60;70.62
7109;BME280;29079;41.930;25.558;2023-03-31T04:22:09;99592.53;;;6.61;70.19
7109;BME280;29079;41.930;25.558;2023-03-31T04:24:46;99596.06;;;6.49;70.76
7109;BME280;29079;41.930;25.558;2023-03-31T04:27:23;99601.03;;;6.54;70.75
7109;BME280;29079;41.930;25.558;2023-03-31T04:29:58;99613.44;;;6.53;70.79
7109;BME280;29079;41.930;25.558;2023-03-31T04:32:31;99614.81;;;6.59;70.70
7109;BME280;29079;41.930;25.558;2023-03-31T04:35:08;99614.91;;;6.70;69.71
7109;BME280;29079;41.930;25.558;2023-03-31T04:37:46;99610.84;;;6.77;69.54
7109;BME280;29079;41.930;25.558;2023-03-31T04:40:20;99614.69;;;6.73;69.86
7109;BME280;29079;41.930;25.558;2023-03-31T04:42:53;99603.09;;;6.87;68.68
7109;BME280;29079;41.930;25.558;2023-03-31T04:45:26;99611.44;;;6.94;68.30
7109;BME280;29079;41.930;25.558;2023-03-31T04:47:59;99617.88;;;6.66;69.67
7109;BME280;29079;41.930;25.558;2023-03-31T04:50:34;99618.28;;;6.72;68.49
7109;BME280;29079;41.930;25.558;2023-03-31T04:53:07;99605.53;;;6.77;68.58
7109;BME280;29079;41.930;25.558;2023-03-31T04:55:40;99607.25;;;6.78;68.86
7109;BME280;29079;41.930;25.558;2023-03-31T04:58:14;99598.53;;;6.76;68.32
7109;BME280;29079;41.930;25.558;2023-03-31T05:00:47;99595.13;;;6.87;67.86
7109;BME280;29079;41.930;25.558;2023-03-31T05:03:20;99597.94;;;6.97;67.71
7109;BME280;29079;41.930;25.558;2023-03-31T05:05:55;99604.28;;;7.07;68.12
7109;BME280;29079;41.930;25.558;2023-03-31T05:08:29;99613.16;;;7.19;67.17
7109;BME280;29079;41.930;25.558;2023-03-31T05:11:02;99611.50;;;7.05;67.99
7109;BME280;29079;41.930;25.558;2023-03-31T05:13:37;99607.22;;;7.15;66.73
7109;BME280;29079;41.930;25.558;2023-03-31T05:16:12;99604.13;;;6.97;67.37
7109;BME280;29079;41.930;25.558;2023-03-31T05:18:45;99596.72;;;6.90;68.66
7109;BME280;29079;41.930;25.558;2023-03-31T05:21:20;99599.50;;;6.75;68.58
7109;BME280;29079;41.930;25.558;2023-03-31T05:23:53;99595.84;;;6.65;68.96
7109;BME280;29079;41.930;25.558;2023-03-31T05:26:27;99603.25;;;6.60;68.91
7109;BME280;29079;41.930;25.558;2023-03-31T05:29:00;99605.91;;;6.60;68.41
7109;BME280;29079;41.930;25.558;2023-03-31T05:31:33;99601.97;;;6.66;68.32
7109;BME280;29079;41.930;25.558;2023-03-31T05:34:06;99609.41;;;6.60;67.67
7109;BME280;29079;41.930;25.558;2023-03-31T05:36:41;99607.09;;;6.43;68.75
7109;BME280;29079;41.930;25.558;2023-03-31T05:39:15;99596.16;;;6.48;68.72
7109;BME280;29079;41.930;25.558;2023-03-31T05:41:50;99591.50;;;6.51;68.23
7109;BME280;29079;41.930;25.558;2023-03-31T05:44:23;99587.75;;;6.67;67.56
7109;BME280;29079;41.930;25.558;2023-03-31T05:46:57;99591.03;;;6.70;66.66
7109;BME280;29079;41.930;25.558;2023-03-31T05:49:30;99584.31;;;6.77;66.07
7109;BME280;29079;41.930;25.558;2023-03-31T05:52:04;99574.50;;;6.67;65.89
7109;BME280;29079;41.930;25.558;2023-03-31T05:54:38;99565.03;;;7.24;65.48
7109;BME280;29079;41.930;25.558;2023-03-31T05:57:11;99570.06;;;7.40;64.48
7109;BME280;29079;41.930;25.558;2023-03-31T05:59:44;99570.63;;;7.08;64.23
7109;BME280;29079;41.930;25.558;2023-03-31T06:02:17;99566.72;;;6.76;65.62
7109;BME280;29079;41.930;25.558;2023-03-31T06:04:50;99562.50;;;6.98;64.65
7109;BME280;29079;41.930;25.558;2023-03-31T06:07:25;99552.00;;;6.96;65.29
7109;BME280;29079;41.930;25.558;2023-03-31T06:09:58;99558.09;;;6.86;65.93
7109;BME280;29079;41.930;25.558;2023-03-31T06:12:36;99559.66;;;7.12;65.33
7109;BME280;29079;41.930;25.558;2023-03-31T06:15:09;99558.78;;;7.25;64.99
7109;BME280;29079;41.930;25.558;2023-03-31T06:17:42;99568.38;;;7.97;64.38
7109;BME280;29079;41.930;25.558;2023-03-31T06:20:16;99575.47;;;7.38;64.19
7109;BME280;29079;41.930;25.558;2023-03-31T06:23:00;99564.81;;;7.03;65.57
7109;BME280;29079;41.930;25.558;2023-03-31T06:25:33;99567.41;;;7.15;65.13
7109;BME280;29079;41.930;25.558;2023-03-31T06:28:22;99572.06;;;7.36;64.73
7109;BME280;29079;41.930;25.558;2023-03-31T06:30:58;99570.28;;;7.37;65.64
7109;BME280;29079;41.930;25.558;2023-03-31T06:33:32;99566.69;;;7.49;64.77
7109;BME280;29079;41.930;25.558;2023-03-31T06:36:05;99571.28;;;7.94;64.42
7109;BME280;29079;41.930;25.558;2023-03-31T06:38:40;99555.94;;;7.97;63.79
7109;BME280;29079;41.930;25.558;2023-03-31T06:41:14;99551.91;;;7.69;63.83
7109;BME280;29079;41.930;25.558;2023-03-31T06:43:48;99554.59;;;7.80;64.06
7109;BME280;29079;41.930;25.558;2023-03-31T06:46:21;99561.22;;;7.75;64.39
7109;BME280;29079;41.930;25.558;2023-03-31T06:48:55;99555.47;;;8.15;63.30
7109;BME280;29079;41.930;25.558;2023-03-31T06:51:28;99555.31;;;7.94;63.82
7109;BME280;29079;41.930;25.558;2023-03-31T06:54:04;99554.38;;;8.17;64.25
7109;BME280;29079;41.930;25.558;2023-03-31T06:56:38;99555.59;;;8.13;62.54
7109;BME280;29079;41.930;25.558;2023-03-31T06:59:11;99557.16;;;8.05;63.28
7109;BME280;29079;41.930;25.558;2023-03-31T07:01:44;99561.16;;;7.99;62.75
7109;BME280;29079;41.930;25.558;2023-03-31T07:04:19;99553.88;;;7.90;63.70
7109;BME280;29079;41.930;25.558;2023-03-31T07:06:52;99557.66;;;8.32;62.67
7109;BME280;29079;41.930;25.558;2023-03-31T07:09:27;99540.63;;;8.46;62.28
7109;BME280;29079;41.930;25.558;2023-03-31T07:12:01;99540.25;;;8.51;62.13
7109;BME280;29079;41.930;25.558;2023-03-31T07:14:36;99539.66;;;8.47;63.02
7109;BME280;29079;41.930;25.558;2023-03-31T07:17:09;99536.25;;;8.34;63.35
7109;BME280;29079;41.930;25.558;2023-03-31T07:19:42;99534.06;;;8.39;62.56
7109;BME280;29079;41.930;25.558;2023-03-31T07:22:18;99548.81;;;8.43;62.66
7109;BME280;29079;41.930;25.558;2023-03-31T07:24:53;99545.44;;;8.41;62.23
7109;BME280;29079;41.930;25.558;2023-03-31T07:27:27;99536.47;;;8.42;62.31
7109;BME280;29079;41.930;25.558;2023-03-31T07:30:00;99533.59;;;8.57;62.00
7109;BME280;29079;41.930;25.558;2023-03-31T07:32:33;99534.53;;;8.67;61.96
7109;BME280;29079;41.930;25.558;2023-03-31T07:35:11;99528.63;;;8.63;62.50
7109;BME280;29079;41.930;25.558;2023-03-31T07:37:44;99533.31;;;8.71;61.46
7109;BME280;29079;41.930;25.558;2023-03-31T07:40:20;99527.56;;;8.54;61.93
7109;BME280;29079;41.930;25.558;2023-03-31T07:42:54;99520.28;;;8.57;62.67
7109;BME280;29079;41.930;25.558;2023-03-31T07:45:28;99527.56;;;8.66;62.94
7109;BME280;29079;41.930;25.558;2023-03-31T07:48:02;99519.59;;;8.54;63.90
7109;BME280;29079;41.930;25.558;2023-03-31T07:50:35;99519.34;;;8.46;64.91
7109;BME280;29079;41.930;25.558;2023-03-31T07:53:09;99510.38;;;8.36;66.09
7109;BME280;29079;41.930;25.558;2023-03-31T07:55:43;99517.31;;;8.50;66.68
7109;BME280;29079;41.930;25.558;2023-03-31T07:58:17;99515.97;;;8.44;67.72
7109;BME280;29079;41.930;25.558;2023-03-31T08:00:50;99510.88;;;8.41;68.34
7109;BME280;29079;41.930;25.558;2023-03-31T08:03:23;99510.16;;;8.50;67.31
7109;BME280;29079;41.930;25.558;2023-03-31T08:05:57;99510.81;;;8.86;65.67
7109;BME280;29079;41.930;25.558;2023-03-31T08:08:32;99511.19;;;9.14;65.04
7109;BME280;29079;41.930;25.558;2023-03-31T08:11:06;99515.03;;;9.21;64.86
7109;BME280;29079;41.930;25.558;2023-03-31T08:13:40;99513.06;;;9.23;64.69
7109;BME280;29079;41.930;25.558;2023-03-31T08:16:13;99511.88;;;9.16;64.52
7109;BME280;29079;41.930;25.558;2023-03-31T08:18:46;99500.88;;;9.21;65.81
7109;BME280;29079;41.930;25.558;2023-03-31T08:21:20;99500.09;;;9.30;65.05
7109;BME280;29079;41.930;25.558;2023-03-31T08:23:55;99513.75;;;9.37;65.04
7109;BME280;29079;41.930;25.558;2023-03-31T08:26:29;99501.91;;;9.51;64.25
7109;BME280;29079;41.930;25.558;2023-03-31T08:29:03;99495.16;;;9.68;65.63
7109;BME280;29079;41.930;25.558;2023-03-31T08:31:37;99488.72;;;9.70;65.72
7109;BME280;29079;41.930;25.558;2023-03-31T08:34:11;99489.28;;;9.74;63.83
7109;BME280;29079;41.930;25.558;2023-03-31T08:36:48;99477.38;;;9.99;64.64
7109;BME280;29079;41.930;25.558;2023-03-31T08:39:21;99459.06;;;10.25;63.88
7109;BME280;29079;41.930;25.558;2023-03-31T08:41:56;99466.00;;;10.38;64.44
7109;BME280;29079;41.930;25.558;2023-03-31T08:44:31;99459.69;;;10.39;62.71
7109;BME280;29079;41.930;25.558;2023-03-31T08:47:09;99448.78;;;10.52;63.96
7109;BME280;29079;41.930;25.558;2023-03-31T08:49:48;99448.94;;;10.79;63.49
7109;BME280;29079;41.930;25.558;2023-03-31T08:52:23;99437.53;;;10.87;63.47
7109;BME280;29079;41.930;25.558;2023-03-31T08:55:00;99439.09;;;11.00;63.12
7109;BME280;29079;41.930;25.558;2023-03-31T08:57:39;99430.09;;;11.20;62.46
7109;BME280;29079;41.930;25.558;2023-03-31T09:00:16;99424.75;;;11.20;62.95
7109;BME280;29079;41.930;25.558;2023-03-31T09:02:50;99418.25;;;11.32;63.29
7109;BME280;29079;41.930;25.558;2023-03-31T09:05:30;99412.59;;;11.45;63.38
7109;BME280;29079;41.930;25.558;2023-03-31T09:08:30;99405.66;;;11.62;63.41
7109;BME280;29079;41.930;25.558;2023-03-31T09:11:09;99395.13;;;11.98;62.26
7109;BME280;29079;41.930;25.558;2023-03-31T09:16:41;99384.91;;;12.12;60.73
7109;BME280;29079;41.930;25.558;2023-03-31T09:19:18;99380.91;;;12.44;60.18
7109;BME280;29079;41.930;25.558;2023-03-31T09:21:53;99380.97;;;12.70;58.81
7109;BME280;29079;41.930;25.558;2023-03-31T09:24:27;99371.63;;;12.56;59.09
7109;BME280;29079;41.930;25.558;2023-03-31T09:27:04;99371.84;;;12.81;57.57
7109;BME280;29079;41.930;25.558;2023-03-31T09:29:40;99365.59;;;12.90;56.64
7109;BME280;29079;41.930;25.558;2023-03-31T09:32:16;99355.19;;;12.87;57.41
7109;BME280;29079;41.930;25.558;2023-03-31T09:34:51;99357.63;;;12.98;56.65
7109;BME280;29079;41.930;25.558;2023-03-31T09:37:25;99347.69;;;13.17;55.05
7109;BME280;29079;41.930;25.558;2023-03-31T09:40:01;99336.31;;;13.15;54.88
7109;BME280;29079;41.930;25.558;2023-03-31T09:42:38;99334.69;;;13.04;54.85
7109;BME280;29079;41.930;25.558;2023-03-31T09:45:13;99337.22;;;13.05;55.08
7109;BME280;29079;41.930;25.558;2023-03-31T09:47:50;99327.56;;;13.13;53.96
7109;BME280;29079;41.930;25.558;2023-03-31T09:50:24;99321.31;;;13.30;53.83
7109;BME280;29079;41.930;25.558;2023-03-31T09:52:59;99324.63;;;13.24;54.25
7109;BME280;29079;41.930;25.558;2023-03-31T09:55:36;99326.56;;;13.14;54.91
7109;BME280;29079;41.930;25.558;2023-03-31T09:58:14;99317.38;;;13.43;54.29
7109;BME280;29079;41.930;25.558;2023-03-31T10:00:55;99311.06;;;13.52;55.14
7109;BME280;29079;41.930;25.558;2023-03-31T10:03:30;99303.06;;;13.34;55.77
7109;BME280;29079;41.930;25.558;2023-03-31T10:06:08;99315.59;;;13.51;55.73
7109;BME280;29079;41.930;25.558;2023-03-31T10:08:41;99309.06;;;13.54;55.56
7109;BME280;29079;41.930;25.558;2023-03-31T10:11:15;99305.41;;;13.63;54.88
7109;BME280;29079;41.930;25.558;2023-03-31T10:13:51;99306.78;;;13.67;54.78
7109;BME280;29079;41.930;25.558;2023-03-31T10:16:30;99303.19;;;13.50;54.25
7109;BME280;29079;41.930;25.558;2023-03-31T10:19:12;99298.41;;;13.70;53.89
7109;BME280;29079;41.930;25.558;2023-03-31T10:21:47;99291.75;;;13.83;53.02
7109;BME280;29079;41.930;25.558;2023-03-31T10:24:21;99294.47;;;13.99;51.79
7109;BME280;29079;41.930;25.558;2023-03-31T10:26:54;99283.72;;;13.91;51.98
7109;BME280;29079;41.930;25.558;2023-03-31T10:29:29;99279.69;;;13.95;51.49
7109;BME280;29079;41.930;25.558;2023-03-31T10:32:03;99261.63;;;14.14;51.42
7109;BME280;29079;41.930;25.558;2023-03-31T10:34:40;99261.28;;;14.17;51.78
7109;BME280;29079;41.930;25.558;2023-03-31T10:37:15;99260.66;;;14.39;51.31
7109;BME280;29079;41.930;25.558;2023-03-31T10:39:55;99260.47;;;14.49;51.10
7109;BME280;29079;41.930;25.558;2023-03-31T10:42:28;99256.47;;;14.61;49.99
7109;BME280;29079;41.930;25.558;2023-03-31T10:45:12;99249.91;;;14.89;49.11
7109;BME280;29079;41.930;25.558;2023-03-31T10:48:05;99245.22;;;14.74;49.13
7109;BME280;29079;41.930;25.558;2023-03-31T10:50:50;99238.03;;;15.14;48.12
7109;BME280;29079;41.930;25.558;2023-03-31T10:53:23;99240.66;;;15.39;47.19
7109;BME280;29079;41.930;25.558;2023-03-31T10:56:08;99231.66;;;15.15;48.09
7109;BME280;29079;41.930;25.558;2023-03-31T10:58:51;99231.59;;;15.32;48.04
7109;BME280;29079;41.930;25.558;2023-03-31T11:01:40;99224.88;;;15.36;48.06
7109;BME280;29079;41.930;25.558;2023-03-31T11:04:32;99220.88;;;15.63;47.06
7109;BME280;29079;41.930;25.558;2023-03-31T11:07:10;99206.25;;;15.66;47.61
7109;BME280;29079;41.930;25.558;2023-03-31T11:09:50;99213.03;;;15.85;47.31
7109;BME280;29079;41.930;25.558;2023-03-31T11:12:32;99203.84;;;16.02;46.84
7109;BME280;29079;41.930;25.558;2023-03-31T11:15:11;99196.84;;;16.16;46.60
7109;BME280;29079;41.930;25.558;2023-03-31T11:17:55;99186.50;;;16.05;46.49
7109;BME280;29079;41.930;25.558;2023-03-31T11:20:33;99175.13;;;16.18;46.46
7109;BME280;29079;41.930;25.558;2023-03-31T11:23:13;99175.13;;;16.56;45.10
7109;BME280;29079;41.930;25.558;2023-03-31T11:25:51;99172.59;;;16.54;45.00
7109;BME280;29079;41.930;25.558;2023-03-31T11:28:31;99157.63;;;16.37;44.47
7109;BME280;29079;41.930;25.558;2023-03-31T11:31:20;99157.75;;;16.59;44.20
7109;BME280;29079;41.930;25.558;2023-03-31T11:33:57;99150.03;;;16.56;43.21
7109;BME280;29079;41.930;25.558;2023-03-31T11:36:36;99143.81;;;16.55;43.90
7109;BME280;29079;41.930;25.558;2023-03-31T11:39:20;99142.56;;;16.28;44.62
7109;BME280;29079;41.930;25.558;2023-03-31T11:41:58;99134.97;;;16.46;44.52
7109;BME280;29079;41.930;25.558;2023-03-31T11:44:36;99133.13;;;16.62;44.00
7109;BME280;29079;41.930;25.558;2023-03-31T11:47:13;99134.53;;;16.73;44.50
7109;BME280;29079;41.930;25.558;2023-03-31T11:49:50;99132.66;;;16.58;44.35
7109;BME280;29079;41.930;25.558;2023-03-31T11:52:26;99124.31;;;16.53;44.67
7109;BME280;29079;41.930;25.558;2023-03-31T11:55:03;99119.38;;;16.42;45.03
7109;BME280;29079;41.930;25.558;2023-03-31T11:57:39;99114.38;;;16.83;44.07
7109;BME280;29079;41.930;25.558;2023-03-31T12:00:15;99108.78;;;16.70;43.73
7109;BME280;29079;41.930;25.558;2023-03-31T12:02:50;99111.03;;;16.66;43.99
7109;BME280;29079;41.930;25.558;2023-03-31T12:05:26;99103.50;;;17.07;43.85
7109;BME280;29079;41.930;25.558;2023-03-31T12:08:02;99093.19;;;16.95;43.95
7109;BME280;29079;41.930;25.558;2023-03-31T12:10:40;99091.13;;;17.12;43.48
7109;BME280;29079;41.930;25.558;2023-03-31T12:13:29;99091.94;;;17.13;43.97
7109;BME280;29079;41.930;25.558;2023-03-31T12:16:08;99084.19;;;17.25;43.73
7109;BME280;29079;41.930;25.558;2023-03-31T12:18:44;99083.03;;;17.34;43.66
7109;BME280;29079;41.930;25.558;2023-03-31T12:21:25;99084.53;;;17.00;43.40
7109;BME280;29079;41.930;25.558;2023-03-31T12:24:01;99082.22;;;16.82;44.01
7109;BME280;29079;41.930;25.558;2023-03-31T12:26:38;99079.53;;;16.82;43.80
7109;BME280;29079;41.930;25.558;2023-03-31T12:29:21;99070.63;;;16.66;44.53
7109;BME280;29079;41.930;25.558;2023-03-31T12:31:55;99072.09;;;16.69;44.20
7109;BME280;29079;41.930;25.558;2023-03-31T12:34:29;99063.56;;;16.80;43.94
7109;BME280;29079;41.930;25.558;2023-03-31T12:37:07;99059.94;;;16.73;43.73
7109;BME280;29079;41.930;25.558;2023-03-31T12:39:49;99056.53;;;16.86;44.02
7109;BME280;29079;41.930;25.558;2023-03-31T12:42:34;99061.03;;;16.94;43.69
7109;BME280;29079;41.930;25.558;2023-03-31T12:45:12;99055.31;;;17.18;42.93
7109;BME280;29079;41.930;25.558;2023-03-31T12:47:58;99048.00;;;16.97;43.40
7109;BME280;29079;41.930;25.558;2023-03-31T12:50:37;99051.56;;;16.98;43.23
7109;BME280;29079;41.930;25.558;2023-03-31T12:53:15;99051.31;;;17.14;42.87
7109;BME280;29079;41.930;25.558;2023-03-31T12:55:49;99046.09;;;16.91;43.19
7109;BME280;29079;41.930;25.558;2023-03-31T12:58:39;99046.47;;;16.88;43.57
7109;BME280;29079;41.930;25.558;2023-03-31T13:01:14;99034.63;;;17.04;43.21
7109;BME280;29079;41.930;25.558;2023-03-31T13:03:51;99029.03;;;17.05;42.73
7109;BME280;29079;41.930;25.558;2023-03-31T13:09:42;99025.84;;;17.38;41.88
7109;BME280;29079;41.930;25.558;2023-03-31T13:12:21;99022.44;;;17.51;41.54
7109;BME280;29079;41.930;25.558;2023-03-31T13:14:59;99023.88;;;17.26;42.02
7109;BME280;29079;41.930;25.558;2023-03-31T13:17:36;99017.69;;;17.10;43.06
7109;BME280;29079;41.930;25.558;2023-03-31T13:20:21;99009.34;;;17.05;43.20
7109;BME280;29079;41.930;25.558;2023-03-31T13:22:59;99004.22;;;17.32;42.36
7109;BME280;29079;41.930;25.558;2023-03-31T13:25:34;98999.00;;;17.09;42.49
7109;BME280;29079;41.930;25.558;2023-03-31T13:28:10;98997.66;;;16.98;43.10
7109;BME280;29079;41.930;25.558;2023-03-31T13:30:50;98997.00;;;16.96;43.19
7109;BME280;29079;41.930;25.558;2023-03-31T13:33:25;98990.69;;;16.88;42.85
7109;BME280;29079;41.930;25.558;2023-03-31T13:36:09;98982.06;;;16.78;43.39
7109;BME280;29079;41.930;25.558;2023-03-31T13:38:49;98976.84;;;16.77;43.36
7109;BME280;29079;41.930;25.558;2023-03-31T13:41:30;98972.69;;;16.89;43.02
7109;BME280;29079;41.930;25.558;2023-03-31T13:44:14;98974.31;;;17.05;42.85
7109;BME280;29079;41.930;25.558;2023-03-31T13:49:51;98964.03;;;17.15;42.49
7109;BME280;29079;41.930;25.558;2023-03-31T13:52:37;98964.75;;;17.24;42.40
7109;BME280;29079;41.930;25.558;2023-03-31T13:55:27;98961.78;;;17.19;42.29
7109;BME280;29079;41.930;25.558;2023-03-31T13:58:22;98960.81;;;17.05;42.91
7109;BME280;29079;41.930;25.558;2023-03-31T14:01:20;98956.66;;;17.02;43.06
7109;BME280;29079;41.930;25.558;2023-03-31T14:04:02;98955.88;;;17.09;43.27
7109;BME280;29079;41.930;25.558;2023-03-31T14:06:46;98954.34;;;17.21;42.97
7109;BME280;29079;41.930;25.558;2023-03-31T14:09:22;98960.44;;;17.08;43.06
7109;BME280;29079;41.930;25.558;2023-03-31T14:11:57;98951.63;;;16.99;43.35
7109;BME280;29079;41.930;25.558;2023-03-31T14:14:31;98953.13;;;16.87;43.48
7109;BME280;29079;41.930;25.558;2023-03-31T14:17:04;98952.31;;;16.86;43.31